createdAt,value
2023-01-17T00:04:20.648Z,96025.19
2023-01-17T00:09:41.009Z,96023.69
2023-01-17T00:14:45.220Z,96017.41
2023-01-17T00:20:05.636Z,96023.69
2023-01-17T00:25:29.448Z,96030.00
2023-01-17T00:30:32.565Z,96043.56
2023-01-17T00:35:34.680Z,96047.94
2023-01-17T00:40:38.188Z,96045.56
2023-01-17T00:46:01.364Z,96054.81
2023-01-17T00:51:21.694Z,96066.69
2023-01-17T00:56:42.235Z,96069.97
2023-01-17T01:02:04.031Z,96086.91
2023-01-17T01:07:24.442Z,96085.38
2023-01-17T01:12:44.814Z,96095.59
2023-01-17T01:18:06.428Z,96112.00
2023-01-17T01:23:26.541Z,96119.25
2023-01-17T01:28:46.901Z,96138.56
2023-01-17T01:33:51.676Z,96133.78
2023-01-17T01:39:02.877Z,96158.69
2023-01-17T01:44:06.110Z,96168.38
2023-01-17T01:49:37.014Z,96189.78
2023-01-17T01:54:53.551Z,96195.69
2023-01-17T02:00:03.783Z,96207.75
2023-01-17T02:05:18.091Z,96218.44
2023-01-17T02:10:20.948Z,96215.22
2023-01-17T02:21:22.909Z,96235.00
2023-01-17T02:27:04.473Z,96245.97
2023-01-17T02:32:11.639Z,96253.19
2023-01-17T02:37:49.104Z,96248.91
2023-01-17T02:42:57.063Z,96267.88
2023-01-17T02:48:03.744Z,96266.53
2023-01-17T02:53:15.795Z,96271.06
2023-01-17T02:59:09.518Z,96289.78
2023-01-17T03:04:15.662Z,96289.75
2023-01-17T03:09:19.026Z,96286.28
2023-01-17T03:14:21.719Z,96300.16
2023-01-17T03:19:25.884Z,96304.66
2023-01-17T03:24:28.665Z,96309.75
2023-01-17T03:29:31.368Z,96310.28
2023-01-17T03:34:35.515Z,96315.84
2023-01-17T03:39:38.163Z,96322.78
2023-01-17T03:44:40.862Z,96330.50
2023-01-17T03:49:44.969Z,96339.84
2023-01-17T03:54:48.533Z,96345.44
2023-01-17T03:59:51.370Z,96353.13
2023-01-17T04:04:55.567Z,96365.13
2023-01-17T04:09:58.296Z,96375.53
2023-01-17T04:15:01.061Z,96374.72
2023-01-17T04:20:06.115Z,96377.06
2023-01-17T04:25:09.717Z,96381.84
2023-01-17T04:30:13.378Z,96381.03
2023-01-17T04:35:17.712Z,96381.28
2023-01-17T04:40:20.726Z,96380.44
2023-01-17T04:45:23.482Z,96384.66
2023-01-17T04:50:27.789Z,96382.56
2023-01-17T04:55:30.461Z,96387.59
2023-01-17T05:00:33.206Z,96384.34
2023-01-17T05:05:37.268Z,96392.59
2023-01-17T05:10:40.042Z,96397.09
2023-01-17T05:15:42.995Z,96394.13
2023-01-17T05:20:47.055Z,96386.09
2023-01-17T05:25:49.773Z,96391.66
2023-01-17T05:30:53.128Z,96401.25
2023-01-17T05:35:57.226Z,96410.81
2023-01-17T05:41:00.566Z,96414.78
2023-01-17T05:46:03.270Z,96419.56
2023-01-17T05:51:07.905Z,96425.91
2023-01-17T05:56:10.583Z,96434.16
2023-01-17T06:01:13.451Z,96433.34
2023-01-17T06:06:17.860Z,96444.78
2023-01-17T06:11:20.665Z,96442.63
2023-01-17T06:16:23.419Z,96447.66
2023-01-17T06:21:27.531Z,96455.09
2023-01-17T06:26:30.254Z,96460.69
2023-01-17T06:31:33.085Z,96475.34
2023-01-17T06:36:37.274Z,96467.00
2023-01-17T06:41:39.979Z,96471.78
2023-01-17T06:46:43.394Z,96479.25
2023-01-17T06:51:47.489Z,96478.41
2023-01-17T06:56:50.145Z,96480.63
2023-01-17T07:01:52.920Z,96484.00
2023-01-17T07:06:56.978Z,96488.09
2023-01-17T07:12:01.937Z,96485.13
2023-01-17T07:17:05.385Z,96496.53
2023-01-17T07:22:11.138Z,96502.00
2023-01-17T07:27:13.829Z,96494.53
2023-01-17T07:32:16.519Z,96494.03
2023-01-17T07:37:20.940Z,96489.22
2023-01-17T07:42:24.415Z,96494.03
2023-01-17T07:47:27.183Z,96498.34
2023-01-17T07:52:31.236Z,96495.13
2023-01-17T07:57:33.915Z,96490.56
2023-01-17T08:02:36.560Z,96492.69
2023-01-17T08:07:40.669Z,96490.28
2023-01-17T08:12:43.311Z,96489.75
2023-01-17T08:17:47.434Z,96484.38
2023-01-17T08:22:53.617Z,96488.66
2023-01-17T08:27:58.274Z,96499.84
2023-01-17T08:33:01.599Z,96504.38
2023-01-17T08:38:05.989Z,96505.97
2023-01-17T08:43:09.613Z,96499.50
2023-01-17T08:48:12.478Z,96501.88
2023-01-17T08:53:18.033Z,96492.78
2023-01-17T08:58:20.721Z,96489.84
2023-01-17T09:03:23.449Z,96501.97
2023-01-17T09:08:27.549Z,96496.69
2023-01-17T09:13:30.248Z,96499.97
2023-01-17T09:18:33.909Z,96505.88
2023-01-17T09:23:38.047Z,96505.28
2023-01-17T09:28:42.637Z,96500.13
2023-01-17T09:33:45.414Z,96511.31
2023-01-17T09:38:50.317Z,96514.47
2023-01-17T09:44:00.975Z,96516.53
2023-01-17T09:49:09.063Z,96518.41
2023-01-17T09:54:21.372Z,96527.78
2023-01-17T09:59:35.610Z,96529.16
2023-01-17T10:04:51.860Z,96526.44
2023-01-17T10:10:06.179Z,96539.13
2023-01-17T10:15:24.131Z,96532.50
2023-01-17T10:20:42.103Z,96539.19
2023-01-17T10:25:49.602Z,96533.00
2023-01-17T10:30:53.586Z,96534.06
2023-01-17T10:35:58.352Z,96525.47
2023-01-17T10:41:06.956Z,96528.63
2023-01-17T10:46:16.009Z,96532.41
2023-01-17T10:51:43.069Z,96541.47
2023-01-17T10:56:47.179Z,96526.16
2023-01-17T11:01:51.275Z,96525.41
2023-01-17T11:07:12.672Z,96523.47
2023-01-17T11:12:29.381Z,96516.66
2023-01-17T11:17:32.556Z,96513.94
2023-01-17T11:22:36.125Z,96512.34
2023-01-17T11:27:41.839Z,96505.44
2023-01-17T11:32:52.995Z,96494.75
2023-01-17T11:38:04.568Z,96494.84
2023-01-17T11:43:22.359Z,96497.53
2023-01-17T11:48:25.004Z,96490.22
2023-01-17T11:53:30.406Z,96497.91
2023-01-17T11:58:36.339Z,96479.06
2023-01-17T12:04:00.102Z,96480.44
2023-01-17T12:09:12.093Z,96475.59
2023-01-17T12:14:23.615Z,96476.47
2023-01-17T12:19:34.565Z,96485.81
2023-01-17T12:24:48.999Z,96468.09
2023-01-17T12:30:09.372Z,96470.53
2023-01-17T12:35:15.341Z,96468.06
2023-01-17T12:40:23.866Z,96467.22
2023-01-17T12:45:31.997Z,96459.63
2023-01-17T12:50:38.363Z,96449.75
2023-01-17T12:56:11.953Z,96446.78
2023-01-17T13:01:24.400Z,96447.94
2023-01-17T13:06:32.858Z,96451.47
2023-01-17T13:11:57.281Z,96445.41
2023-01-17T13:17:18.728Z,96447.25
2023-01-17T13:22:24.031Z,96446.38
2023-01-17T13:27:36.487Z,96445.09
2023-01-17T13:33:01.531Z,96443.88
2023-01-17T13:38:40.113Z,96443.91
2023-01-17T13:44:04.975Z,96442.00
2023-01-17T13:49:34.868Z,96451.59
2023-01-17T13:54:48.612Z,96455.06
2023-01-17T14:00:38.852Z,96461.28
2023-01-17T14:05:50.038Z,96462.13
2023-01-17T14:11:28.692Z,96460.00
2023-01-17T14:16:32.155Z,96452.50
2023-01-17T14:21:37.454Z,96463.75
2023-01-17T14:26:54.209Z,96471.25
2023-01-17T14:32:01.799Z,96470.09
2023-01-17T14:37:10.545Z,96465.75
2023-01-17T14:42:14.962Z,96459.03
2023-01-17T14:47:17.932Z,96461.47
2023-01-17T14:52:23.754Z,96454.53
2023-01-17T14:57:29.123Z,96461.56
2023-01-17T15:02:32.443Z,96468.59
2023-01-17T15:07:37.925Z,96465.91
2023-01-17T15:12:41.014Z,96467.38
2023-01-17T15:17:43.740Z,96463.53
2023-01-17T15:22:47.806Z,96476.38
2023-01-17T15:27:50.613Z,96478.59
2023-01-17T15:32:53.439Z,96468.66
2023-01-17T15:37:58.187Z,96473.00
2023-01-17T15:43:01.918Z,96471.75
2023-01-17T15:48:29.864Z,96474.94
2023-01-17T15:53:35.974Z,96473.91
2023-01-17T15:58:38.726Z,96486.25
2023-01-17T16:03:41.469Z,96474.94
2023-01-17T16:08:53.062Z,96470.13
2023-01-17T16:13:55.790Z,96475.81
2023-01-17T16:19:02.895Z,96486.03
2023-01-17T16:24:10.982Z,96494.34
2023-01-17T16:29:13.848Z,96499.50
2023-01-17T16:34:16.842Z,96511.84
2023-01-17T16:39:20.936Z,96511.03
2023-01-17T16:44:23.722Z,96521.97
2023-01-17T16:49:26.735Z,96529.25
2023-01-17T16:54:30.894Z,96520.94
2023-01-17T16:59:50.614Z,96527.88
2023-01-17T17:05:02.121Z,96517.16
2023-01-17T17:10:07.185Z,96521.25
2023-01-17T17:15:10.681Z,96530.94
2023-01-17T17:20:15.701Z,96540.56
2023-01-17T17:25:20.061Z,96536.31
2023-01-17T17:30:22.742Z,96549.13
2023-01-17T17:35:25.480Z,96551.25
2023-01-17T17:40:29.554Z,96552.31
2023-01-17T17:45:33.352Z,96555.53
2023-01-17T17:50:36.040Z,96553.41
2023-01-17T17:55:42.784Z,96566.88
2023-01-17T18:00:45.474Z,96564.72
2023-01-17T18:05:48.255Z,96566.88
2023-01-17T18:10:52.349Z,96571.72
2023-01-17T18:16:05.491Z,96569.31
2023-01-17T18:21:10.094Z,96578.66
2023-01-17T18:26:18.493Z,96583.47
2023-01-17T18:31:21.590Z,96590.72
2023-01-17T18:36:25.289Z,96590.97
2023-01-17T18:41:30.879Z,96596.38
2023-01-17T18:46:34.140Z,96599.63
2023-01-17T18:51:36.849Z,96602.84
2023-01-17T18:56:42.301Z,96611.44
2023-01-17T19:01:45.095Z,96616.00
2023-01-17T19:06:48.735Z,96610.59
2023-01-17T19:11:52.926Z,96614.63
2023-01-17T19:16:56.143Z,96616.25
2023-01-17T19:21:58.820Z,96625.88
2023-01-17T19:27:03.647Z,96628.84
2023-01-17T19:32:07.350Z,96636.63
2023-01-17T19:37:10.037Z,96644.41
2023-01-17T19:42:15.653Z,96637.09
2023-01-17T19:47:18.453Z,96643.16
2023-01-17T19:52:22.187Z,96647.84
2023-01-17T19:57:28.939Z,96644.56
2023-01-17T20:02:31.695Z,96660.19
2023-01-17T20:07:34.684Z,96659.28
2023-01-17T20:12:38.952Z,96662.94
2023-01-17T20:17:41.626Z,96680.41
2023-01-17T20:22:44.575Z,96681.44
2023-01-17T20:27:48.832Z,96682.66
2023-01-17T20:32:52.200Z,96683.75
2023-01-17T20:37:55.233Z,96684.88
2023-01-17T20:42:59.512Z,96685.81
2023-01-17T20:48:02.266Z,96685.09
2023-01-17T20:53:05.262Z,96698.94
2023-01-17T20:58:09.300Z,96696.09
2023-01-17T21:08:43.102Z,96701.84
2023-01-17T21:13:48.580Z,96711.09
2023-01-17T21:18:52.493Z,96715.66
2023-01-17T21:23:57.298Z,96713.41
2023-01-17T21:29:01.906Z,96711.09
2023-01-17T21:34:06.481Z,96711.78
2023-01-17T21:39:12.261Z,96715.72
2023-01-17T21:44:19.642Z,96716.69
2023-01-17T21:49:26.098Z,96724.47
2023-01-17T21:54:48.124Z,96719.44
2023-01-17T21:59:52.533Z,96721.19
2023-01-17T22:04:56.288Z,96721.75
2023-01-17T22:09:59.061Z,96727.94
2023-01-17T22:15:04.086Z,96733.09
2023-01-17T22:20:11.476Z,96738.97
2023-01-17T22:25:21.280Z,96746.50
2023-01-17T22:30:25.428Z,96741.91
2023-01-17T22:35:28.203Z,96742.75
2023-01-17T22:40:32.574Z,96748.13
2023-01-17T22:45:36.786Z,96746.25
2023-01-17T22:50:39.511Z,96753.25
2023-01-17T22:55:42.243Z,96758.78
2023-01-17T23:00:47.382Z,96753.72
2023-01-17T23:05:50.147Z,96754.56
2023-01-17T23:11:10.225Z,96763.09
2023-01-17T23:16:31.702Z,96751.38
2023-01-17T23:21:48.368Z,96760.84
2023-01-17T23:27:05.103Z,96757.16
2023-01-17T23:32:09.138Z,96751.06
2023-01-17T23:37:11.908Z,96750.34
2023-01-17T23:42:32.124Z,96747.97
2023-01-17T23:47:36.209Z,96744.22
2023-01-17T23:52:38.883Z,96744.56
2023-01-17T23:57:41.591Z,96747.28
